Time;durP1;ratioP1;P1;durP2;ratioP2;P2;SDS_P1;SDS_P2;PMS_P1;PMS_P2;Temp;Humidity;BMP_temperature;BMP_pressure;BME280_temperature;BME280_humidity;BME280_pressure;Samples;Min_cycle;Max_cycle;Signal;HPM_P1;HPM_P2
2021/08/18 00:00:41;;;;;;;3.30;1.27;;;15.30;99.90;;;;;;5096052;28;20028;-76
2021/08/18 00:03:07;;;;;;;2.00;0.93;;;15.30;99.90;;;;;;5094538;28;20027;-75
2021/08/18 00:05:33;;;;;;;3.10;1.58;;;15.30;99.90;;;;;;5096450;28;20042;-77
2021/08/18 00:08:00;;;;;;;5.40;1.25;;;15.20;99.90;;;;;;5095065;28;20024;-77
2021/08/18 00:10:28;;;;;;;2.47;0.93;;;15.30;99.90;;;;;;5097822;28;20058;-79
2021/08/18 00:12:54;;;;;;;2.20;0.90;;;15.30;99.90;;;;;;5097088;28;20035;-79
2021/08/18 00:15:20;;;;;;;2.80;1.25;;;15.20;99.90;;;;;;5095863;28;20036;-79
2021/08/18 00:17:46;;;;;;;3.75;1.15;;;15.20;99.90;;;;;;5096144;28;20024;-79
2021/08/18 00:20:13;;;;;;;3.80;1.05;;;15.30;99.90;;;;;;5097258;28;20509;-79
2021/08/18 00:22:38;;;;;;;1.35;0.65;;;15.20;99.90;;;;;;5097132;28;20024;-79
2021/08/18 00:25:05;;;;;;;5.03;1.20;;;15.20;99.90;;;;;;5095840;28;20488;-75
2021/08/18 00:27:30;;;;;;;4.13;0.90;;;15.30;99.90;;;;;;5094289;28;20456;-75
2021/08/18 00:29:56;;;;;;;3.63;1.35;;;15.30;99.90;;;;;;5094213;28;20052;-75
2021/08/18 00:32:23;;;;;;;3.03;0.98;;;15.30;99.90;;;;;;5095369;28;20026;-75
2021/08/18 00:34:50;;;;;;;2.33;0.80;;;15.30;99.90;;;;;;5095468;28;20032;-75
2021/08/18 00:37:15;;;;;;;3.53;1.10;;;15.30;99.90;;;;;;5095288;28;20432;-75
2021/08/18 00:39:41;;;;;;;4.20;0.80;;;15.20;99.90;;;;;;5094009;28;20012;-76
2021/08/18 00:42:07;;;;;;;3.45;0.70;;;15.30;99.90;;;;;;5094156;28;20027;-76
2021/08/18 00:44:36;;;;;;;6.20;0.82;;;15.30;99.90;;;;;;5095429;28;20378;-75
2021/08/18 00:47:05;;;;;;;4.88;0.77;;;15.30;99.90;;;;;;5095361;28;20535;-75
2021/08/18 00:49:31;;;;;;;2.72;0.35;;;15.30;99.90;;;;;;5095089;28;20104;-76
2021/08/18 00:51:58;;;;;;;6.07;0.70;;;15.30;99.90;;;;;;5094943;28;20046;-75
2021/08/18 00:54:25;;;;;;;3.65;0.22;;;15.30;99.90;;;;;;5096873;28;20039;-79
2021/08/18 00:56:51;;;;;;;0.93;0.52;;;15.30;99.90;;;;;;5096801;28;20035;-79
2021/08/18 00:59:17;;;;;;;3.75;0.43;;;15.30;99.90;;;;;;5096819;28;20016;-78
2021/08/18 01:01:43;;;;;;;3.13;0.52;;;15.30;99.90;;;;;;5097097;28;20441;-77
2021/08/18 01:04:10;;;;;;;0.88;0.50;;;15.30;99.90;;;;;;5094141;28;20027;-79
2021/08/18 01:06:41;;;;;;;2.92;0.28;;;15.30;99.90;;;;;;5094563;28;20027;-75
2021/08/18 01:09:08;;;;;;;1.00;0.22;;;15.30;99.90;;;;;;5094744;28;20090;-78
2021/08/18 01:11:39;;;;;;;1.52;0.20;;;15.30;99.90;;;;;;5095135;28;20114;-77
2021/08/18 01:14:05;;;;;;;3.45;0.35;;;15.20;99.90;;;;;;5094106;28;20110;-79
2021/08/18 01:16:34;;;;;;;2.15;0.20;;;15.20;99.90;;;;;;5095428;28;20028;-79
2021/08/18 01:19:00;;;;;;;1.38;0.20;;;15.20;99.90;;;;;;5094861;28;20111;-78
2021/08/18 01:21:26;;;;;;;1.83;0.00;;;15.20;99.90;;;;;;5093397;28;20430;-75
2021/08/18 01:23:52;;;;;;;0.20;0.00;;;15.20;99.90;;;;;;5093228;28;20024;-75
2021/08/18 01:26:17;;;;;;;0.63;0.20;;;15.10;99.90;;;;;;5093127;28;20030;-76
2021/08/18 01:28:43;;;;;;;3.22;0.20;;;15.10;99.90;;;;;;5094362;28;20119;-76
2021/08/18 01:31:08;;;;;;;0.30;0.03;;;15.10;99.90;;;;;;5093039;28;20115;-76
2021/08/18 01:33:35;;;;;;;1.92;0.32;;;15.10;99.90;;;;;;5094590;28;20067;-76
2021/08/18 01:36:00;;;;;;;1.88;0.30;;;15.00;99.90;;;;;;5094716;28;20050;-76
2021/08/18 01:38:26;;;;;;;1.95;0.65;;;15.00;99.90;;;;;;5094333;28;20031;-77
2021/08/18 01:40:52;;;;;;;3.72;0.22;;;15.00;99.90;;;;;;5093398;28;20028;-77
2021/08/18 01:43:21;;;;;;;0.60;0.00;;;15.00;99.90;;;;;;5093413;28;20024;-77
2021/08/18 01:45:47;;;;;;;0.38;0.20;;;14.90;99.90;;;;;;5094843;28;20031;-77
2021/08/18 01:48:14;;;;;;;0.60;0.17;;;14.90;99.90;;;;;;5094667;28;20016;-77
2021/08/18 01:50:41;;;;;;;1.40;0.10;;;14.90;99.90;;;;;;5093256;28;20470;-77
2021/08/18 01:53:07;;;;;;;0.10;0.00;;;14.90;99.90;;;;;;5094949;28;20024;-77
2021/08/18 01:55:33;;;;;;;0.95;0.03;;;14.90;99.90;;;;;;5093480;28;20505;-77
2021/08/18 01:57:59;;;;;;;0.73;0.10;;;14.90;99.90;;;;;;5094936;28;20020;-77
2021/08/18 02:00:26;;;;;;;2.25;0.00;;;14.80;99.90;;;;;;5093113;28;20032;-77
2021/08/18 02:02:52;;;;;;;0.47;0.10;;;14.80;99.90;;;;;;5094456;28;20513;-77
2021/08/18 02:05:18;;;;;;;2.55;0.10;;;14.80;99.90;;;;;;5094598;28;20020;-77
2021/08/18 02:07:43;;;;;;;0.93;0.00;;;14.80;99.90;;;;;;5094434;28;20024;-77
2021/08/18 02:10:13;;;;;;;3.20;0.20;;;14.80;99.90;;;;;;5093273;28;20024;-77
2021/08/18 02:12:39;;;;;;;1.70;0.10;;;14.80;99.90;;;;;;5094079;28;20023;-77
2021/08/18 02:15:10;;;;;;;3.30;0.10;;;14.80;99.90;;;;;;5093114;28;20396;-77
2021/08/18 02:17:36;;;;;;;1.48;0.13;;;14.80;99.90;;;;;;5093950;28;20031;-77
2021/08/18 02:20:03;;;;;;;0.15;0.00;;;14.80;99.90;;;;;;5094713;28;20034;-77
2021/08/18 02:22:28;;;;;;;1.13;0.20;;;14.80;99.90;;;;;;5093747;28;20027;-76
2021/08/18 02:24:55;;;;;;;4.97;0.30;;;14.90;99.90;;;;;;5094109;28;20024;-79
2021/08/18 02:27:21;;;;;;;1.75;0.20;;;14.80;99.90;;;;;;5093643;28;20505;-77
2021/08/18 02:29:47;;;;;;;2.50;0.35;;;14.90;99.90;;;;;;5094019;28;20069;-75
2021/08/18 02:32:12;;;;;;;2.80;0.03;;;14.90;99.90;;;;;;5094609;28;20054;-77
2021/08/18 02:34:38;;;;;;;0.60;0.15;;;14.90;99.90;;;;;;5092508;28;20420;-78
2021/08/18 02:37:04;;;;;;;3.05;0.20;;;14.90;99.90;;;;;;5092988;28;20039;-78
2021/08/18 02:39:29;;;;;;;6.20;1.02;;;14.90;99.90;;;;;;5093073;28;20069;-77
2021/08/18 02:41:55;;;;;;;2.53;0.45;;;14.90;99.90;;;;;;5093514;28;20424;-76
2021/08/18 02:44:20;;;;;;;3.50;0.10;;;15.00;99.90;;;;;;5093272;28;20016;-76
2021/08/18 02:46:46;;;;;;;1.30;0.25;;;15.00;99.90;;;;;;5093454;28;20028;-77
2021/08/18 02:49:12;;;;;;;1.52;0.40;;;15.00;99.90;;;;;;5094625;28;20024;-78
2021/08/18 02:51:37;;;;;;;1.10;0.40;;;15.00;99.90;;;;;;5092174;28;20028;-77
2021/08/18 02:54:03;;;;;;;4.00;0.50;;;15.00;99.90;;;;;;5092507;28;20024;-77
2021/08/18 02:56:29;;;;;;;3.35;0.70;;;15.00;99.90;;;;;;5092121;28;20123;-76
2021/08/18 02:58:54;;;;;;;13.75;1.08;;;15.30;99.90;;;;;;5093216;28;20054;-77
2021/08/18 03:01:20;;;;;;;2.35;0.38;;;15.10;99.90;;;;;;5093525;28;20489;-77
2021/08/18 03:03:45;;;;;;;3.83;1.02;;;15.10;99.90;;;;;;5093981;28;20024;-77
2021/08/18 03:06:11;;;;;;;3.47;0.40;;;15.10;99.90;;;;;;5092350;28;20024;-77
2021/08/18 03:08:36;;;;;;;2.45;0.50;;;15.10;99.90;;;;;;5094372;28;20042;-75
2021/08/18 03:11:02;;;;;;;3.15;0.40;;;15.10;99.90;;;;;;5091934;28;20024;-76
2021/08/18 03:13:29;;;;;;;3.00;0.40;;;15.10;99.90;;;;;;5094677;28;20055;-77
2021/08/18 03:15:55;;;;;;;2.83;0.63;;;15.10;99.90;;;;;;5093825;28;20109;-75
2021/08/18 03:18:27;;;;;;;2.78;0.60;;;15.10;99.90;;;;;;5093633;28;20024;-77
2021/08/18 03:20:53;;;;;;;4.05;0.80;;;15.10;99.90;;;;;;5092374;28;20028;-78
2021/08/18 03:23:19;;;;;;;1.98;0.65;;;15.20;99.90;;;;;;5093596;28;20081;-75
2021/08/18 03:25:45;;;;;;;0.50;0.30;;;15.10;99.90;;;;;;5093896;28;20025;-77
2021/08/18 03:28:10;;;;;;;1.90;0.40;;;15.20;99.90;;;;;;5097392;28;20024;-77
2021/08/18 03:30:36;;;;;;;1.15;0.32;;;15.20;99.90;;;;;;5097488;28;20062;-75
2021/08/18 03:33:01;;;;;;;5.13;0.52;;;15.20;99.90;;;;;;5097222;28;20020;-75
2021/08/18 03:35:27;;;;;;;2.20;0.55;;;15.20;99.90;;;;;;5095905;28;20079;-79
2021/08/18 03:37:53;;;;;;;3.20;0.47;;;15.20;99.90;;;;;;5097542;28;20024;-77
2021/08/18 03:40:18;;;;;;;4.00;1.25;;;15.30;99.90;;;;;;5095919;28;20026;-77
2021/08/18 03:42:44;;;;;;;4.05;0.50;;;15.30;99.90;;;;;;5095485;28;20034;-78
2021/08/18 03:45:11;;;;;;;3.17;0.68;;;15.20;99.90;;;;;;5096605;28;20495;-77
2021/08/18 03:47:37;;;;;;;4.68;0.57;;;15.20;99.90;;;;;;5095166;28;20020;-75
2021/08/18 03:50:04;;;;;;;2.53;0.65;;;15.20;99.90;;;;;;5096732;28;20016;-77
2021/08/18 03:52:29;;;;;;;3.50;0.65;;;15.20;99.90;;;;;;5096795;28;20021;-78
2021/08/18 03:55:01;;;;;;;3.25;0.52;;;15.20;99.90;;;;;;5095995;28;20054;-78
2021/08/18 03:57:27;;;;;;;2.00;0.30;;;15.10;99.90;;;;;;5097108;28;20023;-77
2021/08/18 03:59:52;;;;;;;1.58;0.30;;;15.20;99.90;;;;;;5096889;28;20028;-77
2021/08/18 04:02:18;;;;;;;0.73;0.38;;;15.10;99.90;;;;;;5096519;28;20105;-76
2021/08/18 04:04:43;;;;;;;0.82;0.30;;;15.10;99.90;;;;;;5095512;28;20024;-78
2021/08/18 04:07:09;;;;;;;1.92;0.50;;;15.10;99.90;;;;;;5095301;28;20031;-77
2021/08/18 04:09:34;;;;;;;1.58;0.52;;;15.10;99.90;;;;;;5095469;28;20386;-77
2021/08/18 04:12:03;;;;;;;0.50;0.20;;;15.10;99.90;;;;;;5095754;28;20050;-77
2021/08/18 04:14:30;;;;;;;0.73;0.10;;;15.10;99.90;;;;;;5097259;28;20477;-79
2021/08/18 04:16:56;;;;;;;2.88;0.63;;;15.10;99.90;;;;;;5096500;28;20048;-79
2021/08/18 04:19:21;;;;;;;5.53;0.32;;;15.10;99.90;;;;;;5098475;28;20424;-79
2021/08/18 04:21:47;;;;;;;4.13;0.30;;;15.10;99.90;;;;;;5096444;28;20389;-79
2021/08/18 04:24:13;;;;;;;1.52;0.30;;;15.10;99.90;;;;;;5096562;28;20024;-79
2021/08/18 04:26:38;;;;;;;0.50;0.15;;;15.10;99.90;;;;;;5097066;28;20023;-79
2021/08/18 04:29:04;;;;;;;1.25;0.10;;;15.20;99.90;;;;;;5097038;28;20477;-79
2021/08/18 04:31:30;;;;;;;2.08;0.32;;;15.10;99.90;;;;;;5095259;28;20028;-79
2021/08/18 04:33:55;;;;;;;0.95;0.00;;;15.20;99.90;;;;;;5097087;28;20034;-79
2021/08/18 04:36:21;;;;;;;1.45;0.15;;;17.10;99.90;;;;;;5095592;28;20046;-79
2021/08/18 04:38:47;;;;;;;1.77;0.55;;;15.10;99.90;;;;;;5094516;28;20024;-79
2021/08/18 04:41:12;;;;;;;2.67;0.22;;;15.10;99.90;;;;;;5095373;28;20024;-79
2021/08/18 04:43:38;;;;;;;2.45;0.25;;;15.10;99.90;;;;;;5095607;28;20020;-77
2021/08/18 04:46:03;;;;;;;1.70;0.10;;;15.10;99.90;;;;;;5094454;28;20020;-77
2021/08/18 04:48:29;;;;;;;2.10;0.00;;;15.10;99.90;;;;;;5122599;22;20040;-77
2021/08/18 04:50:56;;;;;;;1.63;0.00;;;15.00;99.90;;;;;;5116134;28;20050;-76
2021/08/18 04:53:21;;;;;;;5.78;0.25;;;15.10;99.90;;;;;;5097634;28;20016;-76
2021/08/18 04:55:47;;;;;;;0.52;0.10;;;15.00;99.90;;;;;;5116533;28;20015;-77
2021/08/18 04:58:12;;;;;;;0.73;0.10;;;15.00;99.90;;;;;;5116983;28;20490;-79
2021/08/18 05:00:38;;;;;;;0.20;0.20;;;15.00;99.90;;;;;;5097769;28;20027;-77
2021/08/18 05:03:03;;;;;;;1.08;0.10;;;15.00;99.90;;;;;;5097319;28;20031;-75
2021/08/18 05:05:29;;;;;;;0.10;0.00;;;15.00;99.90;;;;;;5116148;28;20024;-76
2021/08/18 05:07:56;;;;;;;0.95;0.00;;;14.90;99.90;;;;;;5115778;28;20019;-78
2021/08/18 05:10:22;;;;;;;0.35;0.20;;;14.90;99.90;;;;;;5097710;28;20029;-77
2021/08/18 05:12:48;;;;;;;1.05;0.10;;;14.90;99.90;;;;;;5097234;28;20106;-75
2021/08/18 05:15:13;;;;;;;0.63;0.10;;;14.90;99.90;;;;;;5097790;28;20033;-77
2021/08/18 05:17:39;;;;;;;1.27;0.00;;;15.00;99.90;;;;;;5116472;28;20023;-79
2021/08/18 05:20:06;;;;;;;2.10;0.20;;;15.00;99.90;;;;;;5097143;28;20432;-75
2021/08/18 05:22:32;;;;;;;0.32;0.10;;;15.00;99.90;;;;;;5096912;28;20023;-75
2021/08/18 05:24:57;;;;;;;1.25;0.20;;;15.00;99.90;;;;;;5096718;28;20011;-76
2021/08/18 05:27:23;;;;;;;2.80;0.15;;;15.00;99.90;;;;;;5096802;28;20023;-76
2021/08/18 05:29:48;;;;;;;2.67;0.30;;;15.00;99.90;;;;;;5115392;28;20015;-75
2021/08/18 05:32:14;;;;;;;3.15;0.90;;;15.00;99.90;;;;;;5096686;28;20019;-77
2021/08/18 05:34:39;;;;;;;0.63;0.20;;;15.00;99.90;;;;;;5114834;28;20039;-75
2021/08/18 05:37:05;;;;;;;0.55;0.13;;;15.00;99.90;;;;;;5115434;28;20023;-77
2021/08/18 05:39:31;;;;;;;0.60;0.10;;;15.00;99.90;;;;;;5115743;28;20032;-79
2021/08/18 05:41:56;;;;;;;0.93;0.17;;;15.00;99.90;;;;;;5114995;28;20124;-76
2021/08/18 05:44:22;;;;;;;1.67;0.13;;;15.10;99.90;;;;;;5096660;28;20457;-76
2021/08/18 05:46:47;;;;;;;1.95;0.50;;;15.10;99.90;;;;;;5115469;28;20086;-77
2021/08/18 05:49:20;;;;;;;0.25;0.00;;;15.10;99.90;;;;;;5096922;28;20418;-76
2021/08/18 05:51:50;;;;;;;1.33;0.17;;;15.10;99.90;;;;;;5114801;28;20058;-77
2021/08/18 05:54:16;;;;;;;0.30;0.08;;;15.10;99.90;;;;;;5113935;28;20019;-77
2021/08/18 05:56:42;;;;;;;0.40;0.10;;;15.20;99.90;;;;;;5114784;28;20020;-77
2021/08/18 05:59:07;;;;;;;1.05;0.00;;;15.20;99.90;;;;;;5114627;28;20473;-77
2021/08/18 06:01:33;;;;;;;0.93;0.30;;;15.20;99.90;;;;;;5095965;28;20019;-77
2021/08/18 06:03:58;;;;;;;0.47;0.03;;;15.30;99.90;;;;;;5114463;28;20026;-77
2021/08/18 06:06:24;;;;;;;0.30;0.10;;;15.30;99.90;;;;;;5096206;28;20068;-77
2021/08/18 06:08:49;;;;;;;0.40;0.10;;;15.40;99.90;;;;;;5096046;28;20076;-77
2021/08/18 06:11:15;;;;;;;4.32;0.17;;;15.40;99.90;;;;;;5114280;28;20031;-77
2021/08/18 06:13:40;;;;;;;1.48;0.63;;;15.50;99.90;;;;;;5114574;28;20020;-77
2021/08/18 06:16:06;;;;;;;0.57;0.35;;;15.50;99.90;;;;;;5114334;28;20102;-77
2021/08/18 06:18:31;;;;;;;0.50;0.20;;;15.60;99.90;;;;;;5095890;28;20016;-77
2021/08/18 06:20:57;;;;;;;0.55;0.10;;;15.50;99.90;;;;;;5095992;28;20062;-77
2021/08/18 06:23:25;;;;;;;1.25;0.20;;;15.60;99.90;;;;;;5114104;28;20039;-77
2021/08/18 06:25:52;;;;;;;0.47;0.30;;;15.60;99.90;;;;;;5096112;28;20178;-77
2021/08/18 06:28:18;;;;;;;0.90;0.10;;;15.70;99.90;;;;;;5113920;28;20016;-77
2021/08/18 06:30:44;;;;;;;1.00;0.10;;;15.70;99.90;;;;;;5095916;28;20557;-78
2021/08/18 06:33:09;;;;;;;2.30;0.13;;;15.70;99.90;;;;;;5095730;28;20489;-79
2021/08/18 06:35:37;;;;;;;1.08;0.13;;;15.80;99.90;;;;;;5096098;28;20027;-75
2021/08/18 06:38:03;;;;;;;3.67;0.10;;;15.80;99.90;;;;;;5095815;28;20068;-77
2021/08/18 06:40:29;;;;;;;1.35;0.20;;;16.00;99.90;;;;;;5114475;28;20028;-76
2021/08/18 06:42:54;;;;;;;1.50;0.20;;;15.90;99.90;;;;;;5095684;28;20053;-75
2021/08/18 06:45:21;;;;;;;2.35;0.10;;;15.90;99.90;;;;;;5113919;28;20024;-75
2021/08/18 06:47:46;;;;;;;0.60;0.20;;;15.90;99.90;;;;;;5114048;28;20473;-77
2021/08/18 06:50:12;;;;;;;0.65;0.20;;;16.10;99.90;;;;;;5095756;28;20038;-77
2021/08/18 06:52:38;;;;;;;1.00;0.10;;;16.10;99.90;;;;;;5114310;28;20020;-77
2021/08/18 06:55:09;;;;;;;1.20;0.20;;;16.10;99.90;;;;;;5107770;22;20555;-75
2021/08/18 06:57:34;;;;;;;3.90;0.20;;;16.20;99.90;;;;;;5073006;28;20051;-76
2021/08/18 07:00:00;;;;;;;2.72;0.40;;;16.30;99.90;;;;;;5073065;28;20016;-75
2021/08/18 07:02:25;;;;;;;2.92;0.25;;;16.40;99.90;;;;;;5058243;28;20029;-75
2021/08/18 07:04:51;;;;;;;2.58;0.40;;;16.40;99.90;;;;;;5124110;22;20051;-75
2021/08/18 07:07:16;;;;;;;2.72;0.57;;;16.40;99.90;;;;;;5118173;28;20015;-75
2021/08/18 07:09:42;;;;;;;2.35;0.43;;;16.50;99.90;;;;;;5117969;28;20024;-77
2021/08/18 07:12:08;;;;;;;5.35;0.10;;;16.60;99.90;;;;;;5124674;22;20401;-77
2021/08/18 07:14:37;;;;;;;1.67;0.80;;;16.70;99.90;;;;;;5079409;28;20073;-77
2021/08/18 07:17:03;;;;;;;0.90;0.30;;;16.70;99.90;;;;;;5098309;28;20048;-76
2021/08/18 07:19:29;;;;;;;2.50;0.30;;;16.80;99.90;;;;;;5097419;28;20393;-79
2021/08/18 07:21:54;;;;;;;0.63;0.25;;;16.80;99.90;;;;;;5079083;28;20519;-75
2021/08/18 07:24:20;;;;;;;0.82;0.25;;;16.90;99.90;;;;;;5131119;22;20401;-77
2021/08/18 07:26:46;;;;;;;3.28;0.43;;;17.00;99.90;;;;;;5118102;28;20480;-76
2021/08/18 07:29:11;;;;;;;1.67;0.28;;;17.10;99.90;;;;;;5117952;28;20018;-79
2021/08/18 07:31:37;;;;;;;1.92;0.20;;;17.10;99.90;;;;;;5118064;28;20369;-77
2021/08/18 07:34:03;;;;;;;3.97;0.55;;;17.20;99.90;;;;;;5099409;28;20024;-76
2021/08/18 07:36:28;;;;;;;1.23;0.22;;;17.20;99.90;;;;;;5117888;28;20092;-76
2021/08/18 07:38:54;;;;;;;2.92;0.55;;;17.30;99.90;;;;;;5117597;28;20019;-78
2021/08/18 07:41:22;;;;;;;14.98;1.35;;;17.20;99.90;;;;;;5099234;28;20023;-76
2021/08/18 07:43:48;;;;;;;4.85;0.40;;;17.30;99.90;;;;;;5117329;28;20027;-76
2021/08/18 07:46:14;;;;;;;3.03;0.43;;;17.40;99.90;;;;;;5116304;28;20014;-78
2021/08/18 07:48:39;;;;;;;2.28;0.47;;;17.50;99.90;;;;;;5099353;28;20023;-77
2021/08/18 07:51:05;;;;;;;3.63;0.77;;;17.50;99.90;;;;;;5116958;28;20063;-75
2021/08/18 07:53:30;;;;;;;5.47;0.63;;;17.60;99.90;;;;;;5095804;22;20074;-78
2021/08/18 07:55:56;;;;;;;2.50;0.43;;;17.70;99.90;;;;;;5074873;28;20024;-76
2021/08/18 07:58:22;;;;;;;2.38;0.55;;;17.70;99.90;;;;;;5106168;22;20048;-75
2021/08/18 08:00:47;;;;;;;5.60;1.13;;;17.80;99.90;;;;;;5095680;28;20115;-78
2021/08/18 08:03:14;;;;;;;2.35;0.73;;;17.80;99.90;;;;;;5096408;28;20121;-76
2021/08/18 08:05:39;;;;;;;2.42;0.65;;;17.80;99.90;;;;;;5095142;28;20016;-78
2021/08/18 08:08:05;;;;;;;2.40;1.00;;;17.80;99.90;;;;;;5096392;28;20031;-75
2021/08/18 08:10:31;;;;;;;2.38;0.50;;;17.90;99.90;;;;;;5110603;22;20093;-76
2021/08/18 08:12:56;;;;;;;3.00;1.02;;;18.00;99.90;;;;;;5115376;28;20026;-78
2021/08/18 08:15:22;;;;;;;5.43;0.57;;;17.90;99.90;;;;;;5116786;28;20022;-77
2021/08/18 08:17:48;;;;;;;4.07;0.85;;;18.00;99.90;;;;;;5110511;22;20059;-76
2021/08/18 08:20:13;;;;;;;5.07;0.80;;;18.10;99.90;;;;;;5078081;28;20539;-77
2021/08/18 08:22:40;;;;;;;1.23;0.43;;;18.10;99.90;;;;;;5078001;28;20115;-77
2021/08/18 08:25:06;;;;;;;3.03;0.80;;;18.20;99.90;;;;;;5096239;28;20103;-75
2021/08/18 08:27:32;;;;;;;4.40;0.70;;;18.20;99.90;;;;;;5095945;28;20013;-75
2021/08/18 08:29:58;;;;;;;1.38;0.47;;;18.30;99.90;;;;;;5077778;28;20069;-76
2021/08/18 08:32:23;;;;;;;1.13;0.50;;;19.00;99.90;;;;;;5077589;28;20062;-77
2021/08/18 08:34:49;;;;;;;3.50;0.77;;;18.40;99.90;;;;;;5077636;28;20047;-75
2021/08/18 08:37:14;;;;;;;2.42;0.80;;;18.40;99.90;;;;;;5077412;28;20119;-77
2021/08/18 08:39:40;;;;;;;6.60;0.52;;;18.40;99.90;;;;;;5139612;22;20098;-79
2021/08/18 08:42:06;;;;;;;4.45;0.60;;;18.40;99.90;;;;;;5116876;28;20040;-75
2021/08/18 08:44:33;;;;;;;2.13;0.98;;;18.50;99.90;;;;;;5097590;28;20061;-76
2021/08/18 08:46:59;;;;;;;2.33;0.52;;;18.50;99.90;;;;;;5115853;28;20479;-75
2021/08/18 08:49:25;;;;;;;1.90;0.80;;;18.40;99.90;;;;;;5116035;28;20518;-79
2021/08/18 08:51:53;;;;;;;2.53;0.35;;;18.50;99.90;;;;;;5097726;28;20024;-75
2021/08/18 08:54:19;;;;;;;4.32;1.40;;;18.60;99.90;;;;;;5116463;28;20465;-77
2021/08/18 08:56:45;;;;;;;4.22;0.75;;;18.70;99.90;;;;;;5115899;28;20081;-75
2021/08/18 08:59:11;;;;;;;3.50;1.17;;;18.70;99.90;;;;;;5115567;28;20026;-76
2021/08/18 09:01:59;;;;;;;5.45;0.80;;;18.80;99.90;;;;;;5097519;28;20015;-77
2021/08/18 09:04:27;;;;;;;1.40;0.80;;;18.90;99.90;;;;;;5115609;28;20034;-77
2021/08/18 09:07:07;;;;;;;3.22;1.15;;;19.00;99.90;;;;;;5115783;28;20034;-76
2021/08/18 09:09:34;;;;;;;2.33;0.80;;;19.00;99.90;;;;;;5097131;28;20046;-76
2021/08/18 09:12:09;;;;;;;2.65;1.10;;;19.10;99.90;;;;;;5113937;28;20393;-78
2021/08/18 09:14:35;;;;;;;2.65;0.90;;;19.00;99.90;;;;;;5097443;28;20024;-76
2021/08/18 09:17:01;;;;;;;4.70;1.13;;;19.20;99.90;;;;;;5115396;28;20125;-76
2021/08/18 09:19:29;;;;;;;2.63;0.95;;;19.20;99.90;;;;;;5097138;28;20027;-78
2021/08/18 09:21:55;;;;;;;3.33;1.02;;;19.30;99.90;;;;;;5097068;28;20105;-76
2021/08/18 09:24:23;;;;;;;5.07;1.27;;;19.40;99.90;;;;;;5115202;28;20024;-75
2021/08/18 09:26:52;;;;;;;2.50;1.23;;;19.40;99.90;;;;;;5114078;28;20388;-75
2021/08/18 09:29:27;;;;;;;;;;;19.40;99.90;;;;;;5115760;28;20153;-76
2021/08/18 09:31:52;;;;;;;4.57;1.27;;;19.40;99.90;;;;;;5096572;28;19904;-74
2021/08/18 09:34:18;;;;;;;4.70;1.30;;;19.40;99.90;;;;;;5096740;28;20381;-76
2021/08/18 09:36:43;;;;;;;2.45;1.10;;;19.20;99.90;;;;;;5114970;28;20120;-74
2021/08/18 09:39:23;;;;;;;2.72;1.38;;;19.10;99.90;;;;;;5114783;28;20465;-75
2021/08/18 09:41:50;;;;;;;4.28;1.95;;;18.90;99.90;;;;;;5096128;28;20477;-75
2021/08/18 09:44:15;;;;;;;6.60;1.60;;;18.80;99.90;;;;;;5114879;28;20023;-79
2021/08/18 09:46:41;;;;;;;2.83;1.92;;;18.60;99.90;;;;;;5096936;28;20019;-78
2021/08/18 09:49:12;;;;;;;2.60;1.70;;;18.50;99.90;;;;;;5114942;28;20102;-76
2021/08/18 09:51:46;;;;;;;4.25;1.58;;;18.40;99.90;;;;;;5114603;28;20031;-78
2021/08/18 09:54:16;;;;;;;4.72;2.00;;;18.30;99.90;;;;;;5096475;28;20106;-75
2021/08/18 09:56:47;;;;;;;3.75;2.33;;;18.30;99.90;;;;;;5096346;28;20384;-79
2021/08/18 09:59:15;;;;;;;5.65;2.05;;;18.30;99.90;;;;;;5115232;28;20020;-76
2021/08/18 10:01:44;;;;;;;5.35;1.85;;;18.40;99.90;;;;;;5096350;28;20136;-76
2021/08/18 10:04:10;;;;;;;4.50;1.83;;;18.30;99.90;;;;;;5096154;28;20015;-76
2021/08/18 10:06:39;;;;;;;3.22;2.35;;;18.30;99.90;;;;;;5104370;22;20091;-78
2021/08/18 10:09:04;;;;;;;;;;;18.20;99.90;;;;;;5093147;28;20027;-76
2021/08/18 10:11:30;;;;;;;4.38;2.53;;;18.10;99.90;;;;;;5092671;28;19904;-76
2021/08/18 10:13:56;;;;;;;4.35;2.55;;;18.10;99.90;;;;;;5093772;28;20032;-74
2021/08/18 10:16:22;;;;;;;5.18;3.35;;;18.00;99.90;;;;;;5093728;28;20103;-76
2021/08/18 10:18:50;;;;;;;6.00;3.15;;;17.90;99.90;;;;;;5094136;28;20178;-76
2021/08/18 10:21:24;;;;;;;9.00;2.83;;;17.90;99.90;;;;;;5093871;28;20389;-76
2021/08/18 10:24:04;;;;;;;6.30;3.65;;;17.90;99.90;;;;;;5108079;22;20035;-75
2021/08/18 10:26:35;;;;;;;5.43;2.80;;;17.90;99.90;;;;;;5096237;28;20504;-78
2021/08/18 10:29:19;;;;;;;7.60;3.30;;;17.90;99.90;;;;;;5114029;28;20027;-76
2021/08/18 10:31:54;;;;;;;7.20;3.53;;;17.90;99.90;;;;;;5096089;28;20519;-75
2021/08/18 10:34:25;;;;;;;6.25;3.28;;;18.10;99.90;;;;;;5096144;28;20062;-76
2021/08/18 10:36:56;;;;;;;5.95;2.63;;;18.10;99.90;;;;;;5114172;28;20059;-78
2021/08/18 10:39:21;;;;;;;6.97;2.95;;;18.20;99.90;;;;;;5095502;28;20034;-76
2021/08/18 10:42:00;;;;;;;9.02;3.15;;;18.30;99.90;;;;;;5114363;28;20031;-76
2021/08/18 10:44:43;;;;;;;7.40;3.58;;;18.60;99.90;;;;;;5126503;22;20084;-78
2021/08/18 10:47:18;;;;;;;7.35;3.28;;;18.80;99.90;;;;;;5112886;28;20019;-75
2021/08/18 10:49:45;;;;;;;5.40;3.05;;;19.20;99.90;;;;;;5114034;28;20067;-75
2021/08/18 10:52:11;;;;;;;5.60;2.85;;;19.30;99.90;;;;;;5114563;28;20024;-78
2021/08/18 10:54:42;;;;;;;6.97;3.08;;;19.60;99.90;;;;;;5095606;28;20019;-76
2021/08/18 10:57:40;;;;;;;6.20;3.40;;;19.80;99.90;;;;;;5112271;28;20042;-75
2021/08/18 11:00:18;;;;;;;8.20;3.72;;;20.00;99.90;;;;;;5113924;28;20027;-76
2021/08/18 11:02:47;;;;;;;7.53;3.65;;;20.10;99.90;;;;;;5095746;28;20115;-78
2021/08/18 11:05:14;;;;;;;7.22;3.33;;;20.30;99.90;;;;;;5113941;28;20023;-74
2021/08/18 11:07:59;;;;;;;5.38;3.45;;;20.40;99.90;;;;;;5113437;28;20023;-75
2021/08/18 11:10:24;;;;;;;6.90;2.70;;;20.40;99.90;;;;;;5114200;28;20404;-74
2021/08/18 11:12:55;;;;;;;5.40;3.30;;;20.30;99.90;;;;;;5113613;28;20031;-75
2021/08/18 11:15:21;;;;;;;6.13;2.55;;;20.10;99.90;;;;;;5095410;28;20022;-76
2021/08/18 11:17:51;;;;;;;7.88;2.40;;;20.00;99.90;;;;;;5113660;28;20016;-74
2021/08/18 11:20:28;;;;;;;3.70;1.95;;;19.80;99.90;;;;;;5113488;28;20043;-76
2021/08/18 11:22:54;;;;;;;3.47;1.85;;;19.80;99.90;;;;;;5113680;28;20472;-76
2021/08/18 11:25:20;;;;;;;7.30;2.25;;;19.90;99.90;;;;;;5113519;28;20024;-76
2021/08/18 11:27:56;;;;;;;2.80;1.40;;;20.20;99.90;;;;;;5095261;28;20107;-76
2021/08/18 11:30:27;;;;;;;4.00;2.22;;;20.30;99.90;;;;;;5112523;28;20050;-76
2021/08/18 11:32:53;;;;;;;3.78;1.63;;;20.30;99.90;;;;;;5113312;28;20042;-78
2021/08/18 11:35:35;;;;;;;6.75;2.38;;;20.70;99.90;;;;;;5114324;28;20015;-76
2021/08/18 11:38:06;;;;;;;3.92;2.35;;;21.00;99.90;;;;;;5112475;28;20019;-78
2021/08/18 11:40:33;;;;;;;4.85;2.22;;;21.30;99.90;;;;;;5113567;28;20100;-76
2021/08/18 11:42:59;;;;;;;2.42;1.30;;;21.30;99.90;;;;;;5094601;28;20032;-74
2021/08/18 11:45:25;;;;;;;5.97;1.42;;;21.20;99.90;;;;;;5126048;22;20043;-76
2021/08/18 11:48:13;;;;;;;4.32;1.73;;;21.00;99.90;;;;;;5116072;28;20031;-76
2021/08/18 11:50:49;;;;;;;3.28;1.83;;;20.80;99.90;;;;;;5117556;28;20047;-79
2021/08/18 11:53:16;;;;;;;4.43;1.90;;;20.80;99.90;;;;;;5116993;28;20023;-76
2021/08/18 11:55:42;;;;;;;5.55;1.25;;;20.90;99.90;;;;;;5117167;28;20102;-77
2021/08/18 11:58:08;;;;;;;6.88;1.60;;;21.00;99.90;;;;;;5129406;22;20570;-75
2021/08/18 12:00:39;;;;;;;6.05;1.42;;;21.00;99.90;;;;;;5116775;28;20105;-74
2021/08/18 12:03:05;;;;;;;2.88;1.10;;;20.90;99.90;;;;;;5116688;28;20019;-74
2021/08/18 12:05:32;;;;;;;2.38;1.02;;;20.80;99.90;;;;;;5116538;28;20023;-75
2021/08/18 12:08:06;;;;;;;2.67;1.00;;;20.90;99.90;;;;;;5098216;28;20016;-76
2021/08/18 12:10:38;;;;;;;2.42;1.17;;;20.90;99.90;;;;;;5116508;28;20102;-74
2021/08/18 12:13:06;;;;;;;6.20;1.02;;;21.10;99.90;;;;;;5098213;28;20557;-77
2021/08/18 12:15:34;;;;;;;1.35;0.60;;;21.10;99.90;;;;;;5115241;28;20027;-76
2021/08/18 12:17:59;;;;;;;4.80;1.08;;;21.20;99.90;;;;;;5098486;28;20028;-75
2021/08/18 12:20:30;;;;;;;1.00;0.20;;;21.50;99.90;;;;;;5097999;28;20019;-77
2021/08/18 12:25:35;;;;;;;4.25;0.63;;;21.60;99.90;;;;;;5113803;28;20072;-77
2021/08/18 12:28:18;;;;;;;1.75;0.65;;;21.00;99.90;;;;;;5098046;28;20024;-74
2021/08/18 12:30:55;;;;;;;1.75;0.63;;;21.00;99.90;;;;;;5116584;28;20030;-74
2021/08/18 12:33:21;;;;;;;2.05;0.28;;;21.00;99.90;;;;;;5106371;22;20041;-74
2021/08/18 12:36:12;;;;;;;0.50;0.43;;;20.80;99.90;;;;;;5096460;28;20031;-77
2021/08/18 12:38:51;;;;;;;1.95;0.43;;;20.80;99.90;;;;;;5096200;28;20027;-78
2021/08/18 12:41:17;;;;;;;2.70;0.55;;;21.10;99.90;;;;;;5077851;28;20493;-75
2021/08/18 12:43:42;;;;;;;3.80;0.55;;;21.50;99.90;;;;;;5096315;28;20031;-78
2021/08/18 12:46:20;;;;;;;0.88;0.30;;;21.90;99.90;;;;;;5077598;28;20020;-75
2021/08/18 12:48:45;;;;;;;2.00;0.53;;;22.30;99.90;;;;;;5096124;28;20027;-78
2021/08/18 12:51:11;;;;;;;2.40;0.20;;;22.70;99.90;;;;;;5095579;28;20017;-74